Weather at Balıkesir Merkez Airport

Public forecast

Using degrees Celsius for public forecast. Weather courtesy of forecast.io.

Current aviation weather report (METAR) for Balıkesir Merkez Airport

2024/07/14 10:50 (retrieved 46 minutes ago)

LTBF 141050Z 02018G29KT CAVOK 33/19 Q1008 NOSIG RMK RWY18 01017G28KT 340V050

Closest aviation forecast (TAF) to Balıkesir Merkez Airport

Closest forecast is Bursa Yenişehir Airport, 84.5 nm (156.4 km) ENE.

2024/07/14 06:00 (retrieved 6 hours ago)

TAF LTBR 140440Z 1406/1506 VRB02KT 9999 FEW035 BECMG 1408/1411 35012KT BECMG 1416/1419 VRB02KT CAVOK